createdAt,value
2022-09-27T00:02:01.289Z,100.00
2022-09-27T00:04:29.309Z,100.00
2022-09-27T00:06:57.221Z,100.00
2022-09-27T00:09:25.206Z,100.00
2022-09-27T00:11:54.475Z,100.00
2022-09-27T00:14:22.500Z,100.00
2022-09-27T00:16:50.496Z,100.00
2022-09-27T00:19:21.810Z,100.00
2022-09-27T00:21:51.040Z,100.00
2022-09-27T00:24:20.994Z,100.00
2022-09-27T00:26:49.508Z,100.00
2022-09-27T00:29:21.070Z,100.00
2022-09-27T00:31:49.164Z,100.00
2022-09-27T00:34:20.103Z,100.00
2022-09-27T00:36:48.783Z,100.00
2022-09-27T00:39:17.228Z,100.00
2022-09-27T00:41:46.059Z,100.00
2022-09-27T00:44:56.599Z,100.00
2022-09-27T00:47:28.876Z,100.00
2022-09-27T00:50:00.300Z,100.00
2022-09-27T00:52:33.358Z,100.00
2022-09-27T00:55:05.890Z,100.00
2022-09-27T00:57:34.186Z,100.00
2022-09-27T01:00:07.854Z,100.00
2022-09-27T01:02:36.618Z,100.00
2022-09-27T01:05:05.372Z,100.00
2022-09-27T01:07:33.375Z,100.00
2022-09-27T01:10:01.501Z,100.00
2022-09-27T01:12:40.015Z,100.00
2022-09-27T01:15:19.085Z,100.00
2022-09-27T01:17:56.698Z,100.00
2022-09-27T01:21:09.986Z,100.00
2022-09-27T01:24:01.264Z,100.00
2022-09-27T01:26:47.970Z,100.00
2022-09-27T01:29:28.610Z,100.00
2022-09-27T01:32:07.195Z,100.00
2022-09-27T01:34:44.653Z,100.00
2022-09-27T01:37:23.523Z,100.00
2022-09-27T01:39:59.008Z,100.00
2022-09-27T01:42:30.421Z,100.00
2022-09-27T01:45:04.886Z,100.00
2022-09-27T01:47:40.488Z,100.00
2022-09-27T01:50:13.494Z,100.00
2022-09-27T01:52:47.526Z,100.00
2022-09-27T01:55:18.469Z,100.00
2022-09-27T01:57:51.665Z,100.00
2022-09-27T02:00:19.850Z,100.00
2022-09-27T02:02:53.964Z,100.00
2022-09-27T02:05:28.190Z,100.00
2022-09-27T02:08:00.783Z,100.00
2022-09-27T02:10:34.917Z,100.00
2022-09-27T02:13:12.359Z,100.00
2022-09-27T02:15:49.526Z,100.00
2022-09-27T02:18:26.046Z,100.00
2022-09-27T02:20:59.866Z,100.00
2022-09-27T02:23:34.666Z,100.00
2022-09-27T02:26:08.199Z,100.00
2022-09-27T02:28:40.694Z,100.00
2022-09-27T02:31:08.926Z,100.00
2022-09-27T02:33:41.692Z,100.00
2022-09-27T02:36:10.202Z,100.00
2022-09-27T02:38:38.524Z,100.00
2022-09-27T02:41:14.583Z,100.00
2022-09-27T02:43:44.337Z,100.00
2022-09-27T02:46:28.076Z,100.00
2022-09-27T02:49:11.985Z,100.00
2022-09-27T02:51:48.851Z,100.00
2022-09-27T02:54:25.579Z,100.00
2022-09-27T02:57:04.734Z,100.00
2022-09-27T02:59:45.249Z,100.00
2022-09-27T03:02:19.052Z,100.00
2022-09-27T03:04:52.876Z,100.00
2022-09-27T03:07:21.849Z,100.00
2022-09-27T03:09:51.969Z,100.00
2022-09-27T03:12:25.947Z,100.00
2022-09-27T03:14:54.282Z,100.00
2022-09-27T03:17:22.717Z,100.00
2022-09-27T03:19:52.051Z,100.00
2022-09-27T03:22:20.186Z,100.00
2022-09-27T03:24:48.565Z,100.00
2022-09-27T03:27:16.462Z,100.00
2022-09-27T03:29:44.426Z,100.00
2022-09-27T03:32:12.334Z,100.00
2022-09-27T03:34:40.237Z,100.00
2022-09-27T03:37:09.708Z,100.00
2022-09-27T03:39:37.662Z,100.00
2022-09-27T03:42:05.671Z,100.00
2022-09-27T03:44:33.873Z,100.00
2022-09-27T03:47:01.770Z,100.00
2022-09-27T03:49:29.971Z,100.00
2022-09-27T03:51:58.059Z,100.00
2022-09-27T03:54:27.305Z,100.00
2022-09-27T03:56:55.215Z,100.00
2022-09-27T03:59:23.161Z,100.00
2022-09-27T04:01:51.116Z,100.00
2022-09-27T04:04:19.072Z,100.00
2022-09-27T04:06:47.031Z,100.00
2022-09-27T04:09:14.962Z,100.00
2022-09-27T04:11:44.221Z,100.00
2022-09-27T04:14:13.087Z,100.00
2022-09-27T04:16:41.431Z,100.00
2022-09-27T04:19:10.751Z,100.00
2022-09-27T04:21:38.794Z,100.00
2022-09-27T04:24:06.978Z,100.00
2022-09-27T04:26:35.077Z,100.00
2022-09-27T04:29:04.551Z,100.00
2022-09-27T04:31:32.517Z,100.00
2022-09-27T04:34:00.447Z,100.00
2022-09-27T04:36:28.819Z,100.00
2022-09-27T04:38:57.963Z,100.00
2022-09-27T04:41:26.659Z,100.00
2022-09-27T04:43:58.888Z,100.00
2022-09-27T04:46:31.656Z,100.00
2022-09-27T04:49:00.323Z,100.00
2022-09-27T04:51:28.450Z,100.00
2022-09-27T04:53:57.688Z,100.00
2022-09-27T04:56:26.207Z,100.00
2022-09-27T04:58:54.596Z,100.00
2022-09-27T05:01:22.941Z,100.00
2022-09-27T05:03:52.287Z,100.00
2022-09-27T05:06:20.653Z,100.00
2022-09-27T05:08:48.534Z,100.00
2022-09-27T05:11:16.497Z,100.00
2022-09-27T05:13:44.491Z,100.00
2022-09-27T05:16:12.474Z,100.00
2022-09-27T05:18:40.509Z,100.00
2022-09-27T05:21:09.936Z,100.00
2022-09-27T05:23:37.919Z,100.00
2022-09-27T05:26:06.218Z,100.00
2022-09-27T05:28:35.183Z,100.00
2022-09-27T05:31:03.945Z,100.00
2022-09-27T05:33:34.397Z,100.00
2022-09-27T05:36:04.500Z,100.00
2022-09-27T05:38:34.003Z,100.00
2022-09-27T05:41:02.084Z,100.00
2022-09-27T05:43:30.031Z,100.00
2022-09-27T05:45:58.689Z,100.00
2022-09-27T05:48:28.542Z,100.00
2022-09-27T05:50:56.567Z,100.00
2022-09-27T05:53:24.551Z,100.00
2022-09-27T05:55:53.850Z,100.00
2022-09-27T05:58:21.757Z,100.00
2022-09-27T06:00:49.705Z,100.00
2022-09-27T06:03:21.631Z,100.00
2022-09-27T06:05:51.484Z,100.00
2022-09-27T06:08:20.721Z,100.00
2022-09-27T06:10:48.947Z,100.00
2022-09-27T06:13:18.584Z,100.00
2022-09-27T06:15:47.489Z,100.00
2022-09-27T06:18:18.132Z,100.00
2022-09-27T06:20:46.742Z,100.00
2022-09-27T06:23:16.561Z,100.00
2022-09-27T06:25:44.502Z,100.00
2022-09-27T06:28:12.940Z,100.00
2022-09-27T06:30:43.770Z,100.00
2022-09-27T06:33:13.846Z,100.00
2022-09-27T06:35:43.002Z,100.00
2022-09-27T06:38:13.206Z,100.00
2022-09-27T06:40:41.537Z,100.00
2022-09-27T06:43:11.155Z,100.00
2022-09-27T06:45:39.828Z,100.00
2022-09-27T06:48:10.893Z,100.00
2022-09-27T06:50:39.953Z,100.00
2022-09-27T06:53:09.303Z,100.00
2022-09-27T06:55:37.753Z,100.00
2022-09-27T06:58:24.253Z,100.00
2022-09-27T07:00:53.764Z,100.00
2022-09-27T07:03:35.472Z,100.00
2022-09-27T07:06:07.728Z,100.00
2022-09-27T07:08:35.967Z,100.00
2022-09-27T07:11:05.942Z,100.00
2022-09-27T07:13:34.628Z,100.00
2022-09-27T07:16:03.203Z,100.00
2022-09-27T07:18:33.851Z,100.00
2022-09-27T07:21:01.840Z,100.00
2022-09-27T07:23:30.117Z,100.00
2022-09-27T07:25:58.081Z,100.00
2022-09-27T07:28:26.080Z,100.00
2022-09-27T07:30:56.663Z,100.00
2022-09-27T07:33:25.048Z,100.00
2022-09-27T07:35:54.406Z,100.00
2022-09-27T07:38:22.355Z,100.00
2022-09-27T07:40:50.333Z,100.00
2022-09-27T07:43:19.582Z,100.00
2022-09-27T07:45:47.624Z,100.00
2022-09-27T07:48:17.348Z,100.00
2022-09-27T07:50:45.581Z,100.00
2022-09-27T07:53:15.138Z,100.00
2022-09-27T07:55:44.010Z,100.00
2022-09-27T07:58:13.707Z,100.00
2022-09-27T08:00:41.923Z,100.00
2022-09-27T08:03:16.094Z,100.00
2022-09-27T08:05:45.381Z,100.00
2022-09-27T08:08:15.220Z,100.00
2022-09-27T08:10:44.238Z,100.00
2022-09-27T08:13:12.774Z,100.00
2022-09-27T08:15:40.683Z,100.00
2022-09-27T08:18:09.543Z,100.00
2022-09-27T08:20:38.016Z,100.00
2022-09-27T08:23:06.081Z,100.00
2022-09-27T08:25:35.394Z,100.00
2022-09-27T08:28:05.462Z,100.00
2022-09-27T08:30:33.926Z,100.00
2022-09-27T08:33:03.476Z,100.00
2022-09-27T08:35:34.084Z,100.00
2022-09-27T08:38:05.543Z,100.00
2022-09-27T08:40:53.283Z,100.00
2022-09-27T08:43:34.737Z,100.00
2022-09-27T08:46:16.240Z,100.00
2022-09-27T08:48:46.189Z,100.00
2022-09-27T08:51:15.720Z,100.00
2022-09-27T08:53:51.143Z,100.00
2022-09-27T08:56:21.404Z,100.00
2022-09-27T08:58:53.309Z,100.00
2022-09-27T09:01:25.073Z,100.00
2022-09-27T09:04:00.593Z,100.00
2022-09-27T09:06:30.114Z,100.00
2022-09-27T09:09:06.057Z,100.00
2022-09-27T09:12:05.555Z,100.00
2022-09-27T09:15:00.403Z,100.00
2022-09-27T09:17:43.839Z,100.00
2022-09-27T09:20:22.758Z,100.00
2022-09-27T09:23:22.865Z,100.00
2022-09-27T09:25:59.626Z,100.00
2022-09-27T09:28:40.232Z,100.00
2022-09-27T09:31:17.324Z,100.00
2022-09-27T09:33:51.828Z,100.00
2022-09-27T09:36:28.756Z,100.00
2022-09-27T09:39:00.727Z,100.00
2022-09-27T09:41:32.401Z,100.00
2022-09-27T09:44:06.773Z,100.00
2022-09-27T09:46:44.894Z,100.00
2022-09-27T09:49:21.178Z,100.00
2022-09-27T09:51:56.778Z,100.00
2022-09-27T09:54:32.093Z,100.00
2022-09-27T09:57:04.816Z,100.00
2022-09-27T09:59:41.254Z,100.00
2022-09-27T10:02:25.360Z,100.00
2022-09-27T10:04:53.505Z,100.00
2022-09-27T10:07:23.683Z,100.00
2022-09-27T10:09:53.091Z,100.00
2022-09-27T10:12:21.211Z,100.00
2022-09-27T10:14:51.722Z,100.00
2022-09-27T10:17:22.414Z,100.00
2022-09-27T10:19:52.701Z,100.00
2022-09-27T10:22:28.638Z,100.00
2022-09-27T10:24:59.403Z,100.00
2022-09-27T10:27:27.787Z,100.00
2022-09-27T10:30:01.001Z,100.00
2022-09-27T10:32:33.125Z,100.00
2022-09-27T10:35:36.843Z,100.00
2022-09-27T10:38:30.296Z,100.00
2022-09-27T10:41:00.410Z,100.00
2022-09-27T10:43:33.116Z,100.00
2022-09-27T10:46:10.551Z,100.00
2022-09-27T10:48:41.777Z,100.00
2022-09-27T10:51:25.111Z,100.00
2022-09-27T10:53:53.752Z,100.00
2022-09-27T10:56:25.124Z,100.00
2022-09-27T10:58:53.562Z,100.00
2022-09-27T11:01:23.837Z,100.00
2022-09-27T11:03:55.911Z,100.00
2022-09-27T11:06:37.850Z,100.00
2022-09-27T11:09:19.913Z,100.00
2022-09-27T11:11:47.940Z,100.00
2022-09-27T11:14:21.904Z,100.00
2022-09-27T11:17:04.773Z,100.00
2022-09-27T11:19:44.303Z,100.00
2022-09-27T11:22:26.107Z,100.00
2022-09-27T11:25:12.910Z,100.00
2022-09-27T11:27:55.012Z,99.66
2022-09-27T11:30:24.879Z,100.00
2022-09-27T11:33:16.680Z,100.00
2022-09-27T11:35:58.793Z,96.93
2022-09-27T11:41:34.350Z,93.72
2022-09-27T11:44:24.200Z,88.20
2022-09-27T11:47:03.165Z,85.37
2022-09-27T11:50:20.574Z,83.01
2022-09-27T11:53:04.999Z,84.13
2022-09-27T11:55:44.308Z,81.42
2022-09-27T11:58:27.704Z,79.84
2022-09-27T12:01:13.493Z,81.65
2022-09-27T12:04:02.545Z,84.75
2022-09-27T12:06:42.680Z,83.49
2022-09-27T12:09:16.026Z,84.20
2022-09-27T12:11:49.190Z,86.83
2022-09-27T12:14:26.537Z,89.17
2022-09-27T12:16:56.863Z,87.34
2022-09-27T12:19:29.213Z,85.11
2022-09-27T12:22:04.092Z,86.15
2022-09-27T12:24:34.101Z,87.40
2022-09-27T12:27:09.683Z,86.78
2022-09-27T12:29:41.832Z,84.57
2022-09-27T12:32:17.251Z,82.00
2022-09-27T12:34:51.209Z,85.75
2022-09-27T12:37:26.165Z,87.85
2022-09-27T12:40:00.795Z,87.34
2022-09-27T12:42:34.754Z,87.94
2022-09-27T12:45:03.212Z,88.31
2022-09-27T12:47:45.310Z,89.86
2022-09-27T12:50:23.953Z,89.04
2022-09-27T12:52:59.895Z,91.85
2022-09-27T12:55:44.190Z,92.91
2022-09-27T12:58:31.802Z,91.13
2022-09-27T13:01:05.611Z,93.53
2022-09-27T13:03:52.796Z,92.17
2022-09-27T13:06:33.921Z,92.31
2022-09-27T13:09:28.144Z,91.62
2022-09-27T13:12:35.335Z,93.10
2022-09-27T13:15:41.442Z,91.25
2022-09-27T13:19:01.686Z,92.10
2022-09-27T13:22:09.302Z,90.97
2022-09-27T13:25:55.507Z,90.86
2022-09-27T13:29:04.783Z,88.65
2022-09-27T13:32:18.051Z,85.65
2022-09-27T13:35:26.014Z,84.42
2022-09-27T13:38:31.115Z,82.11
2022-09-27T13:41:55.128Z,78.42
2022-09-27T13:45:20.104Z,79.51
2022-09-27T13:48:30.463Z,77.00
2022-09-27T13:51:44.097Z,76.57
2022-09-27T13:54:54.908Z,77.08
2022-09-27T13:58:03.744Z,75.74
2022-09-27T14:01:17.931Z,75.55
2022-09-27T14:04:28.690Z,76.75
2022-09-27T14:07:41.056Z,78.16
2022-09-27T14:10:46.368Z,77.50
2022-09-27T14:13:54.184Z,76.39
2022-09-27T14:17:01.110Z,77.07
2022-09-27T14:20:13.710Z,79.45
2022-09-27T14:23:22.937Z,78.88
2022-09-27T14:26:29.312Z,77.83
2022-09-27T14:29:41.963Z,77.66
2022-09-27T14:32:49.173Z,78.73
2022-09-27T14:36:11.566Z,77.71
2022-09-27T14:39:22.744Z,79.17
2022-09-27T14:42:32.468Z,80.69
2022-09-27T14:45:40.935Z,82.41
2022-09-27T14:48:45.959Z,81.63
2022-09-27T14:51:55.022Z,81.95
2022-09-27T14:55:02.381Z,82.79
2022-09-27T14:58:42.888Z,81.66
2022-09-27T15:01:50.335Z,81.64
2022-09-27T15:04:56.291Z,81.16
2022-09-27T15:08:05.692Z,78.13
2022-09-27T15:11:11.186Z,78.55
2022-09-27T15:14:19.852Z,77.79
2022-09-27T15:17:26.542Z,78.11
2022-09-27T15:20:35.381Z,76.85
2022-09-27T15:23:43.445Z,77.18
2022-09-27T15:26:51.956Z,79.23
2022-09-27T15:29:59.785Z,79.39
2022-09-27T15:33:08.676Z,77.41
2022-09-27T15:36:15.839Z,77.97
2022-09-27T15:39:27.546Z,79.57
2022-09-27T15:42:57.245Z,78.56
2022-09-27T15:46:04.797Z,77.83
2022-09-27T15:49:30.860Z,77.11
2022-09-27T15:52:43.297Z,77.41
2022-09-27T15:55:49.330Z,78.85
2022-09-27T15:58:55.036Z,82.37
2022-09-27T16:02:07.536Z,92.05
2022-09-27T16:05:15.036Z,87.38
2022-09-27T16:08:20.284Z,92.63
2022-09-27T16:11:25.377Z,91.65
2022-09-27T16:14:30.331Z,91.12
2022-09-27T16:17:37.856Z,93.64
2022-09-27T16:20:44.499Z,95.35
2022-09-27T16:23:49.558Z,94.20
2022-09-27T16:26:54.374Z,96.73
2022-09-27T16:29:59.326Z,98.84
2022-09-27T16:33:04.842Z,100.00
2022-09-27T16:36:16.123Z,100.00
2022-09-27T16:39:21.576Z,100.00
2022-09-27T16:42:27.167Z,100.00
2022-09-27T16:45:34.140Z,100.00
2022-09-27T16:48:40.027Z,100.00
2022-09-27T16:52:00.710Z,100.00
2022-09-27T16:55:07.528Z,100.00
2022-09-27T16:58:12.728Z,100.00
2022-09-27T17:01:17.636Z,99.07
2022-09-27T17:04:22.880Z,99.09
2022-09-27T17:07:29.434Z,100.00
2022-09-27T17:10:35.889Z,100.00
2022-09-27T17:13:40.864Z,100.00
2022-09-27T17:16:47.317Z,100.00
2022-09-27T17:19:52.831Z,100.00
2022-09-27T17:22:59.159Z,100.00
2022-09-27T17:26:06.889Z,100.00
2022-09-27T17:29:13.177Z,100.00
2022-09-27T17:32:24.777Z,100.00
2022-09-27T17:35:31.491Z,100.00
2022-09-27T17:38:38.630Z,100.00
2022-09-27T17:41:44.078Z,100.00
2022-09-27T17:44:49.094Z,100.00
2022-09-27T17:48:13.564Z,100.00
2022-09-27T17:51:18.662Z,100.00
2022-09-27T17:54:27.913Z,100.00
2022-09-27T17:57:32.794Z,100.00
2022-09-27T18:00:37.598Z,100.00
2022-09-27T18:03:42.948Z,100.00
2022-09-27T18:06:48.833Z,100.00
2022-09-27T18:09:55.385Z,100.00
2022-09-27T18:13:00.417Z,100.00
2022-09-27T18:16:05.963Z,100.00
2022-09-27T18:19:13.369Z,100.00
2022-09-27T18:22:18.645Z,100.00
2022-09-27T18:25:25.181Z,100.00
2022-09-27T18:28:31.072Z,100.00
2022-09-27T18:34:59.186Z,100.00
2022-09-27T18:38:04.290Z,100.00
2022-09-27T18:41:12.320Z,100.00
2022-09-27T18:44:18.806Z,100.00
2022-09-27T18:47:24.542Z,100.00
2022-09-27T18:50:29.888Z,100.00
2022-09-27T18:53:35.074Z,100.00
2022-09-27T18:56:41.629Z,100.00
2022-09-27T18:59:49.242Z,100.00
2022-09-27T19:02:54.500Z,100.00
2022-09-27T19:06:01.179Z,100.00
2022-09-27T19:09:07.287Z,100.00
2022-09-27T19:12:13.687Z,100.00
2022-09-27T19:15:18.574Z,100.00
2022-09-27T19:18:23.830Z,100.00
2022-09-27T19:21:30.719Z,100.00
2022-09-27T19:24:35.847Z,100.00
2022-09-27T19:27:43.327Z,100.00
2022-09-27T19:30:48.682Z,100.00
2022-09-27T19:33:59.642Z,100.00
2022-09-27T19:37:05.778Z,100.00
2022-09-27T19:40:10.925Z,100.00
2022-09-27T19:43:17.044Z,100.00
2022-09-27T19:46:23.488Z,100.00
2022-09-27T19:49:28.707Z,100.00
2022-09-27T19:52:34.423Z,100.00
2022-09-27T19:55:39.667Z,100.00
2022-09-27T19:58:46.193Z,100.00
2022-09-27T20:01:51.620Z,100.00
2022-09-27T20:04:56.930Z,100.00
2022-09-27T20:08:02.268Z,100.00
2022-09-27T20:11:08.894Z,100.00
2022-09-27T20:14:15.332Z,100.00
2022-09-27T20:17:20.327Z,100.00
2022-09-27T20:20:25.674Z,100.00
2022-09-27T20:23:32.093Z,100.00
2022-09-27T20:26:38.023Z,100.00
2022-09-27T20:29:44.655Z,100.00
2022-09-27T20:33:10.048Z,100.00
2022-09-27T20:36:16.926Z,100.00
2022-09-27T20:39:23.614Z,100.00
2022-09-27T20:42:29.257Z,100.00
2022-09-27T20:45:35.755Z,100.00
2022-09-27T20:48:41.099Z,100.00
2022-09-27T20:51:48.633Z,100.00
2022-09-27T20:54:53.878Z,100.00
2022-09-27T20:57:58.780Z,100.00
2022-09-27T21:01:08.611Z,99.85
2022-09-27T21:04:15.814Z,100.00
2022-09-27T21:07:21.170Z,96.93
2022-09-27T21:10:26.205Z,96.45
2022-09-27T21:13:31.268Z,96.37
2022-09-27T21:16:37.841Z,96.73
2022-09-27T21:19:42.856Z,98.67
2022-09-27T21:22:48.172Z,99.95
2022-09-27T21:26:02.288Z,100.00
2022-09-27T21:29:11.592Z,100.00
2022-09-27T21:32:18.305Z,100.00
2022-09-27T21:35:23.461Z,100.00
2022-09-27T21:38:28.786Z,100.00
2022-09-27T21:41:33.947Z,100.00
2022-09-27T21:44:38.982Z,100.00
2022-09-27T21:47:45.235Z,100.00
2022-09-27T21:50:50.177Z,100.00
2022-09-27T21:53:57.022Z,100.00
2022-09-27T21:57:02.581Z,100.00
2022-09-27T22:00:09.210Z,100.00
2022-09-27T22:03:15.729Z,100.00
2022-09-27T22:06:23.208Z,100.00
2022-09-27T22:09:28.219Z,100.00
2022-09-27T22:12:33.441Z,100.00
2022-09-27T22:15:39.345Z,100.00
2022-09-27T22:18:46.659Z,100.00
2022-09-27T22:21:51.815Z,100.00
2022-09-27T22:24:57.007Z,100.00
2022-09-27T22:28:02.778Z,100.00
2022-09-27T22:31:08.851Z,100.00
2022-09-27T22:34:18.831Z,100.00
2022-09-27T22:37:24.261Z,100.00
2022-09-27T22:40:29.432Z,100.00
2022-09-27T22:43:35.226Z,100.00
2022-09-27T22:46:40.942Z,100.00
2022-09-27T22:49:47.718Z,100.00
2022-09-27T22:52:52.733Z,100.00
2022-09-27T22:56:03.263Z,100.00
2022-09-27T22:59:09.471Z,100.00
2022-09-27T23:02:14.376Z,100.00
2022-09-27T23:05:20.891Z,100.00
2022-09-27T23:08:25.721Z,100.00
2022-09-27T23:11:31.290Z,100.00
2022-09-27T23:14:40.396Z,100.00
2022-09-27T23:17:50.855Z,100.00
2022-09-27T23:21:03.287Z,100.00
2022-09-27T23:24:08.457Z,100.00
2022-09-27T23:27:30.867Z,100.00
2022-09-27T23:30:36.205Z,100.00
2022-09-27T23:33:44.355Z,100.00
2022-09-27T23:36:51.064Z,100.00
2022-09-27T23:39:56.139Z,100.00
2022-09-27T23:43:01.527Z,100.00
2022-09-27T23:46:08.552Z,100.00
2022-09-27T23:49:14.179Z,100.00
2022-09-27T23:52:20.628Z,100.00
2022-09-27T23:55:25.752Z,100.00
2022-09-27T23:58:33.753Z,100.00
